createdAt,value
2022-10-23T00:00:47.794Z,96.48
2022-10-23T00:01:46.665Z,96.48
2022-10-23T00:02:45.983Z,96.38
2022-10-23T00:03:45.431Z,96.43
2022-10-23T00:04:45.359Z,96.43
2022-10-23T00:05:46.208Z,96.33
2022-10-23T00:06:46.112Z,96.33
2022-10-23T00:07:46.073Z,96.43
2022-10-23T00:08:47.340Z,96.43
2022-10-23T00:09:46.104Z,96.43
2022-10-23T00:10:46.912Z,96.43
2022-10-23T00:11:47.553Z,96.53
2022-10-23T00:12:45.429Z,96.53
2022-10-23T00:13:46.216Z,96.53
2022-10-23T00:14:48.763Z,96.53
2022-10-23T00:15:46.377Z,96.63
2022-10-23T00:16:46.016Z,96.63
2022-10-23T00:17:46.000Z,96.63
2022-10-23T00:18:46.477Z,96.63
2022-10-23T00:19:45.974Z,96.63
2022-10-23T00:20:45.830Z,96.68
2022-10-23T00:21:46.806Z,96.63
2022-10-23T00:22:46.161Z,96.63
2022-10-23T00:23:45.057Z,96.73
2022-10-23T00:24:46.449Z,96.63
2022-10-23T00:25:46.401Z,96.63
2022-10-23T00:26:45.141Z,96.63
2022-10-23T00:27:46.450Z,96.68
2022-10-23T00:28:45.806Z,96.68
2022-10-23T00:29:45.891Z,96.58
2022-10-23T00:30:45.838Z,96.58
2022-10-23T00:31:46.489Z,96.58
2022-10-23T00:32:45.101Z,96.47
2022-10-23T00:33:45.875Z,96.47
2022-10-23T00:34:46.823Z,96.47
2022-10-23T00:35:46.757Z,96.51
2022-10-23T00:36:46.027Z,96.62
2022-10-23T00:37:45.125Z,96.58
2022-10-23T00:38:46.835Z,96.58
2022-10-23T00:39:46.298Z,96.58
2022-10-23T00:40:45.045Z,96.72
2022-10-23T00:41:46.438Z,96.72
2022-10-23T00:42:45.946Z,96.72
2022-10-23T00:43:45.165Z,96.72
2022-10-23T00:44:45.890Z,96.83
2022-10-23T00:45:45.807Z,96.83
2022-10-23T00:46:46.599Z,96.92
2022-10-23T00:47:45.718Z,96.92
2022-10-23T00:48:46.713Z,97.03
2022-10-23T00:49:45.645Z,97.03
2022-10-23T00:50:46.342Z,97.03
2022-10-23T00:51:47.938Z,97.13
2022-10-23T00:52:45.743Z,97.13
2022-10-23T00:53:46.326Z,97.13
2022-10-23T00:54:46.240Z,97.24
2022-10-23T00:55:45.949Z,97.24
2022-10-23T00:56:47.436Z,97.24
2022-10-23T00:57:45.571Z,97.24
2022-10-23T00:58:44.773Z,97.24
2022-10-23T00:59:44.707Z,97.24
2022-10-23T01:00:44.702Z,97.24
2022-10-23T01:01:45.772Z,97.33
2022-10-23T01:02:45.971Z,97.33
2022-10-23T01:03:44.741Z,97.33
2022-10-23T01:04:46.701Z,97.24
2022-10-23T01:05:45.526Z,97.24
2022-10-23T01:06:48.383Z,97.24
2022-10-23T01:07:46.082Z,97.24
2022-10-23T01:08:47.078Z,97.13
2022-10-23T01:09:46.382Z,97.13
2022-10-23T01:10:46.458Z,97.13
2022-10-23T01:11:45.504Z,97.13
2022-10-23T01:12:46.420Z,97.13
2022-10-23T01:13:46.434Z,97.03
2022-10-23T01:14:44.489Z,97.13
2022-10-23T01:15:45.970Z,97.13
2022-10-23T01:16:44.582Z,97.13
2022-10-23T01:17:45.945Z,97.13
2022-10-23T01:18:45.337Z,97.17
2022-10-23T01:19:45.205Z,97.17
2022-10-23T01:20:44.616Z,97.17
2022-10-23T01:21:45.332Z,97.17
2022-10-23T01:22:47.113Z,97.17
2022-10-23T01:23:45.250Z,97.17
2022-10-23T01:24:45.072Z,97.17
2022-10-23T01:25:45.368Z,97.17
2022-10-23T01:26:44.535Z,97.17
2022-10-23T01:27:45.750Z,97.17
2022-10-23T01:28:45.217Z,97.17
2022-10-23T01:29:45.066Z,97.08
2022-10-23T01:30:44.543Z,97.08
2022-10-23T01:31:44.504Z,97.08
2022-10-23T01:32:45.856Z,97.08
2022-10-23T01:33:46.236Z,96.97
2022-10-23T01:34:44.987Z,96.97
2022-10-23T01:35:45.222Z,96.97
2022-10-23T01:36:44.314Z,97.08
2022-10-23T01:37:44.412Z,97.08
2022-10-23T01:38:44.297Z,97.08
2022-10-23T01:39:45.138Z,97.17
2022-10-23T01:40:45.847Z,97.17
2022-10-23T01:41:46.035Z,97.17
2022-10-23T01:42:44.543Z,97.17
2022-10-23T01:43:45.183Z,97.17
2022-10-23T01:44:45.005Z,97.17
2022-10-23T01:45:45.164Z,97.17
2022-10-23T01:46:45.000Z,97.17
2022-10-23T01:47:45.454Z,97.28
2022-10-23T01:48:45.125Z,97.28
2022-10-23T01:49:45.821Z,97.28
2022-10-23T01:50:45.953Z,97.28
2022-10-23T01:51:45.755Z,97.28
2022-10-23T01:52:46.000Z,97.28
2022-10-23T01:53:45.059Z,97.28
2022-10-23T01:54:45.655Z,97.28
2022-10-23T01:55:44.005Z,97.28
2022-10-23T01:56:43.993Z,97.38
2022-10-23T01:57:44.486Z,97.38
2022-10-23T01:58:44.001Z,97.38
2022-10-23T01:59:43.954Z,97.38
2022-10-23T02:00:43.943Z,97.38
2022-10-23T02:01:44.061Z,97.38
2022-10-23T02:02:45.072Z,97.38
2022-10-23T02:03:43.904Z,97.49
2022-10-23T02:04:43.905Z,97.49
2022-10-23T02:05:43.885Z,97.44
2022-10-23T02:06:43.883Z,97.44
2022-10-23T02:07:44.332Z,97.44
2022-10-23T02:08:44.020Z,97.44
2022-10-23T02:09:43.842Z,97.44
2022-10-23T02:10:43.831Z,97.44
2022-10-23T02:11:43.822Z,97.44
2022-10-23T02:12:43.825Z,97.49
2022-10-23T02:13:43.808Z,97.44
2022-10-23T02:14:43.853Z,97.44
2022-10-23T02:15:43.778Z,97.54
2022-10-23T02:16:43.782Z,97.54
2022-10-23T02:17:43.970Z,97.54
2022-10-23T02:18:43.760Z,97.54
2022-10-23T02:19:43.772Z,97.54
2022-10-23T02:21:43.726Z,97.64
2022-10-23T02:22:44.006Z,97.64
2022-10-23T02:23:43.702Z,97.54
2022-10-23T02:24:43.732Z,97.54
2022-10-23T02:25:43.682Z,97.54
2022-10-23T02:26:43.685Z,97.54
2022-10-23T02:27:43.682Z,97.64
2022-10-23T02:28:43.641Z,97.64
2022-10-23T02:29:47.262Z,97.64
2022-10-23T02:30:43.622Z,97.64
2022-10-23T02:31:43.621Z,97.74
2022-10-23T02:32:44.022Z,97.74
2022-10-23T02:33:43.588Z,97.85
2022-10-23T02:34:43.611Z,97.95
2022-10-23T02:35:43.562Z,98.05
2022-10-23T02:36:43.581Z,98.05
2022-10-23T02:37:43.901Z,98.05
2022-10-23T02:38:43.581Z,98.05
2022-10-23T02:39:43.521Z,98.05
2022-10-23T02:40:43.600Z,97.95
2022-10-23T02:41:43.503Z,97.95
2022-10-23T02:42:43.521Z,97.95
2022-10-23T02:43:43.633Z,97.95
2022-10-23T02:44:43.502Z,97.95
2022-10-23T02:45:43.489Z,97.85
2022-10-23T02:46:43.481Z,97.85
2022-10-23T02:47:43.819Z,97.85
2022-10-23T02:48:43.430Z,97.85
2022-10-23T02:49:43.410Z,97.54
2022-10-23T02:50:43.410Z,97.44
2022-10-23T02:51:43.401Z,97.54
2022-10-23T02:52:43.422Z,97.74
2022-10-23T02:53:43.372Z,97.85
2022-10-23T02:54:43.390Z,97.85
2022-10-23T02:55:43.387Z,97.85
2022-10-23T02:56:43.340Z,97.95
2022-10-23T02:57:43.636Z,97.95
2022-10-23T02:58:43.327Z,97.95
2022-10-23T02:59:43.301Z,98.05
2022-10-23T03:00:43.300Z,98.05
2022-10-23T03:01:43.414Z,98.05
2022-10-23T03:02:43.279Z,98.05
2022-10-23T03:03:43.261Z,98.15
2022-10-23T03:04:43.258Z,98.15
2022-10-23T03:05:43.241Z,98.21
2022-10-23T03:06:43.457Z,98.21
2022-10-23T03:07:43.591Z,98.21
2022-10-23T03:08:43.219Z,98.21
2022-10-23T03:09:43.220Z,98.21
2022-10-23T03:10:43.262Z,98.31
2022-10-23T03:11:43.190Z,98.31
2022-10-23T03:12:43.414Z,98.31
2022-10-23T03:13:43.188Z,98.31
2022-10-23T03:14:43.170Z,98.31
2022-10-23T03:15:43.140Z,98.31
2022-10-23T03:16:43.131Z,98.31
2022-10-23T03:17:43.130Z,98.21
2022-10-23T03:18:43.141Z,98.21
2022-10-23T03:19:43.091Z,98.21
2022-10-23T03:20:43.089Z,98.21
2022-10-23T03:21:43.080Z,98.31
2022-10-23T03:22:43.291Z,98.31
2022-10-23T03:23:43.049Z,98.31
2022-10-23T03:24:43.070Z,98.31
2022-10-23T03:25:43.059Z,98.41
2022-10-23T03:26:43.058Z,98.41
2022-10-23T03:27:43.010Z,98.31
2022-10-23T03:28:43.034Z,98.31
2022-10-23T03:29:43.031Z,98.31
2022-10-23T03:30:42.981Z,98.31
2022-10-23T03:31:42.969Z,98.31
2022-10-23T03:32:43.297Z,98.31
2022-10-23T03:33:42.949Z,98.31
2022-10-23T03:34:42.942Z,98.41
2022-10-23T03:35:42.989Z,98.41
2022-10-23T03:36:42.952Z,98.41
2022-10-23T03:37:43.199Z,98.41
2022-10-23T03:38:42.899Z,98.52
2022-10-23T03:39:42.889Z,98.52
2022-10-23T03:40:42.916Z,98.61
2022-10-23T03:41:42.883Z,98.61
2022-10-23T03:42:42.850Z,98.61
2022-10-23T03:43:42.865Z,98.61
2022-10-23T03:44:42.829Z,98.52
2022-10-23T03:45:42.826Z,98.52
2022-10-23T03:46:42.800Z,98.52
2022-10-23T03:47:43.108Z,98.52
2022-10-23T03:48:42.799Z,98.52
2022-10-23T03:49:42.769Z,98.52
2022-10-23T03:50:42.768Z,98.52
2022-10-23T03:51:42.761Z,98.61
2022-10-23T03:52:43.131Z,98.77
2022-10-23T03:53:42.729Z,98.88
2022-10-23T03:54:42.719Z,98.98
2022-10-23T03:55:42.739Z,99.08
2022-10-23T03:56:42.709Z,99.18
2022-10-23T03:57:42.719Z,99.14
2022-10-23T03:58:42.678Z,99.24
2022-10-23T03:59:42.669Z,99.24
2022-10-23T04:01:42.939Z,99.34
2022-10-23T04:02:43.012Z,99.34
2022-10-23T04:03:42.628Z,99.34
2022-10-23T04:04:42.617Z,99.34
2022-10-23T04:05:42.626Z,99.34
2022-10-23T04:06:42.628Z,99.34
2022-10-23T04:07:42.579Z,99.44
2022-10-23T04:08:42.568Z,99.44
2022-10-23T04:09:42.575Z,99.44
2022-10-23T04:10:42.587Z,99.44
2022-10-23T04:11:42.552Z,99.44
2022-10-23T04:12:42.845Z,99.34
2022-10-23T04:13:42.526Z,99.44
2022-10-23T04:14:44.838Z,99.44
2022-10-23T04:15:42.569Z,99.44
2022-10-23T04:16:42.509Z,99.34
2022-10-23T04:17:42.479Z,99.34
2022-10-23T04:18:42.459Z,99.34
2022-10-23T04:19:42.514Z,99.34
2022-10-23T04:20:42.457Z,99.34
2022-10-23T04:21:42.458Z,99.24
2022-10-23T04:22:49.945Z,99.14
2022-10-23T04:23:42.420Z,99.14
2022-10-23T04:24:42.392Z,99.04
2022-10-23T04:25:42.448Z,99.04
2022-10-23T04:26:42.412Z,99.14
2022-10-23T04:27:42.855Z,99.14
2022-10-23T04:28:42.353Z,99.14
2022-10-23T04:29:42.343Z,99.24
2022-10-23T04:30:42.335Z,99.24
2022-10-23T04:31:42.335Z,99.24
2022-10-23T04:32:42.312Z,99.24
2022-10-23T04:33:42.335Z,99.24
2022-10-23T04:34:42.295Z,99.34
2022-10-23T04:35:42.288Z,99.34
2022-10-23T04:36:42.261Z,99.34
2022-10-23T04:37:42.515Z,99.34
2022-10-23T04:38:42.250Z,99.29
2022-10-23T04:39:42.281Z,99.29
2022-10-23T04:40:42.222Z,99.29
2022-10-23T04:41:42.249Z,99.29
2022-10-23T04:42:42.503Z,99.34
2022-10-23T04:43:42.220Z,99.24
2022-10-23T04:44:42.181Z,99.24
2022-10-23T04:45:42.202Z,99.14
2022-10-23T04:46:42.193Z,99.14
2022-10-23T04:47:42.154Z,99.14
2022-10-23T04:48:42.144Z,99.14
2022-10-23T04:49:42.129Z,99.24
2022-10-23T04:50:42.151Z,99.14
2022-10-23T04:51:42.112Z,98.93
2022-10-23T04:52:42.457Z,98.73
2022-10-23T04:53:42.092Z,98.73
2022-10-23T04:54:42.102Z,98.52
2022-10-23T04:55:43.352Z,98.43
2022-10-23T04:56:42.052Z,98.43
2022-10-23T04:57:42.053Z,98.52
2022-10-23T04:58:42.060Z,98.63
2022-10-23T04:59:42.022Z,98.63
2022-10-23T05:00:42.025Z,98.68
2022-10-23T05:01:42.036Z,98.68
2022-10-23T05:02:42.254Z,98.79
2022-10-23T05:03:41.981Z,98.79
2022-10-23T05:04:41.991Z,98.79
2022-10-23T05:05:46.023Z,98.79
2022-10-23T05:06:41.941Z,98.79
2022-10-23T05:07:42.270Z,98.79
2022-10-23T05:08:41.932Z,98.79
2022-10-23T05:09:41.919Z,98.68
2022-10-23T05:10:41.902Z,98.79
2022-10-23T05:11:41.922Z,98.68
2022-10-23T05:12:41.882Z,98.68
2022-10-23T05:13:41.874Z,98.58
2022-10-23T05:14:41.861Z,98.58
2022-10-23T05:16:41.934Z,98.48
2022-10-23T05:17:42.107Z,98.58
2022-10-23T05:18:41.822Z,98.68
2022-10-23T05:19:41.811Z,98.68
2022-10-23T05:20:41.801Z,98.79
2022-10-23T05:21:41.791Z,98.79
2022-10-23T05:22:41.919Z,98.74
2022-10-23T05:23:41.761Z,98.74
2022-10-23T05:24:41.761Z,98.84
2022-10-23T05:25:41.749Z,98.84
2022-10-23T05:26:41.730Z,98.84
2022-10-23T05:27:42.208Z,98.84
2022-10-23T05:28:41.711Z,98.94
2022-10-23T05:29:41.702Z,98.94
2022-10-23T05:30:41.930Z,98.84
2022-10-23T05:31:41.680Z,98.64
2022-10-23T05:32:41.856Z,98.64
2022-10-23T05:33:41.661Z,98.64
2022-10-23T05:34:41.791Z,98.64
2022-10-23T05:35:41.641Z,98.64
2022-10-23T05:36:41.638Z,98.64
2022-10-23T05:37:41.621Z,98.54
2022-10-23T05:38:41.610Z,98.54
2022-10-23T05:39:41.600Z,98.54
2022-10-23T05:40:41.932Z,98.43
2022-10-23T05:41:41.590Z,98.43
2022-10-23T05:42:41.831Z,98.38
2022-10-23T05:43:41.561Z,98.38
2022-10-23T05:44:41.550Z,98.38
2022-10-23T05:45:41.889Z,98.27
2022-10-23T05:46:41.520Z,98.38
2022-10-23T05:47:41.539Z,98.38
2022-10-23T05:48:41.501Z,98.33
2022-10-23T05:49:41.528Z,98.33
2022-10-23T05:50:41.481Z,98.33
2022-10-23T05:51:41.470Z,98.23
2022-10-23T05:52:41.813Z,98.13
2022-10-23T05:53:42.550Z,98.18
2022-10-23T05:54:41.470Z,98.07
2022-10-23T05:55:41.429Z,98.07
2022-10-23T05:56:41.525Z,98.07
2022-10-23T05:57:41.893Z,98.07
2022-10-23T05:58:41.391Z,98.07
2022-10-23T05:59:41.394Z,98.07
2022-10-23T06:00:41.378Z,98.07
2022-10-23T06:01:41.540Z,98.27
2022-10-23T06:02:41.451Z,98.38
2022-10-23T06:03:41.370Z,98.38
2022-10-23T06:04:41.350Z,98.38
2022-10-23T06:05:41.322Z,98.38
2022-10-23T06:06:41.309Z,98.48
2022-10-23T06:07:41.469Z,98.48
2022-10-23T06:08:41.288Z,98.58
2022-10-23T06:09:41.309Z,98.48
2022-10-23T06:10:41.269Z,98.58
2022-10-23T06:11:41.319Z,98.58
2022-10-23T06:12:41.249Z,98.58
2022-10-23T06:13:41.236Z,98.58
2022-10-23T06:14:41.229Z,98.68
2022-10-23T06:15:41.219Z,98.74
2022-10-23T06:16:41.246Z,98.84
2022-10-23T06:17:41.585Z,98.84
2022-10-23T06:18:41.184Z,98.84
2022-10-23T06:19:41.168Z,98.84
2022-10-23T06:20:41.169Z,98.84
2022-10-23T06:21:41.187Z,98.94
2022-10-23T06:22:41.432Z,98.94
2022-10-23T06:23:41.129Z,98.94
2022-10-23T06:24:41.119Z,98.94
2022-10-23T06:25:41.108Z,98.94
2022-10-23T06:26:41.089Z,99.04
2022-10-23T06:27:41.119Z,99.04
2022-10-23T06:28:41.079Z,99.04
2022-10-23T06:29:41.069Z,98.94
2022-10-23T06:30:41.069Z,98.94
2022-10-23T06:31:41.259Z,98.94
2022-10-23T06:32:41.507Z,98.94
2022-10-23T06:33:41.028Z,98.94
2022-10-23T06:34:41.029Z,98.94
2022-10-23T06:35:41.010Z,98.94
2022-10-23T06:36:41.010Z,98.84
2022-10-23T06:37:41.200Z,98.84
2022-10-23T06:38:41.006Z,98.84
2022-10-23T06:39:40.969Z,98.84
2022-10-23T06:40:40.970Z,98.79
2022-10-23T06:41:41.229Z,98.79
2022-10-23T06:42:41.185Z,98.90
2022-10-23T06:43:40.919Z,98.79
2022-10-23T06:44:40.908Z,98.79
2022-10-23T06:45:41.248Z,98.90
2022-10-23T06:46:40.901Z,98.79
2022-10-23T06:47:41.069Z,98.79
2022-10-23T06:48:40.939Z,98.79
2022-10-23T06:49:40.858Z,98.79
2022-10-23T06:50:40.870Z,98.79
2022-10-23T06:51:40.838Z,98.69
2022-10-23T06:52:46.860Z,98.69
2022-10-23T06:53:41.807Z,98.69
2022-10-23T06:54:40.799Z,98.59
2022-10-23T06:55:40.859Z,98.59
2022-10-23T06:56:40.778Z,98.59
2022-10-23T06:57:41.117Z,98.59
2022-10-23T06:58:40.767Z,98.59
2022-10-23T06:59:40.748Z,98.59
2022-10-23T07:00:40.810Z,98.49
2022-10-23T07:01:40.971Z,98.49
2022-10-23T07:02:40.959Z,98.49
2022-10-23T07:03:40.709Z,98.49
2022-10-23T07:04:40.695Z,98.39
2022-10-23T07:05:40.686Z,98.39
2022-10-23T07:06:40.688Z,98.39
2022-10-23T07:07:40.708Z,98.28
2022-10-23T07:08:40.649Z,98.28
2022-10-23T07:09:40.638Z,98.28
2022-10-23T07:10:40.709Z,98.28
2022-10-23T07:11:40.621Z,98.28
2022-10-23T07:12:40.996Z,98.28
2022-10-23T07:13:40.612Z,98.28
2022-10-23T07:14:40.607Z,98.28
2022-10-23T07:15:40.581Z,98.24
2022-10-23T07:16:40.591Z,98.24
2022-10-23T07:17:40.568Z,98.24
2022-10-23T07:18:40.539Z,98.24
2022-10-23T07:19:40.535Z,98.24
2022-10-23T07:20:40.518Z,98.24
2022-10-23T07:21:40.518Z,98.34
2022-10-23T07:22:40.753Z,98.34
2022-10-23T07:23:40.526Z,98.34
2022-10-23T07:24:40.478Z,98.34
2022-10-23T07:25:40.468Z,98.34
2022-10-23T07:26:40.700Z,98.34
2022-10-23T07:27:40.799Z,98.34
2022-10-23T07:28:40.435Z,98.24
2022-10-23T07:29:40.468Z,98.24
2022-10-23T07:30:40.408Z,98.24
2022-10-23T07:31:40.457Z,98.24
2022-10-23T07:32:40.407Z,98.24
2022-10-23T07:33:40.399Z,98.24
2022-10-23T07:34:40.384Z,98.14
2022-10-23T07:35:40.397Z,98.14
2022-10-23T07:36:40.348Z,98.14
2022-10-23T07:37:40.548Z,98.09
2022-10-23T07:38:40.346Z,98.09
2022-10-23T07:39:40.327Z,98.09
2022-10-23T07:40:40.348Z,97.99
2022-10-23T07:41:40.336Z,97.99
2022-10-23T07:42:40.280Z,97.99
2022-10-23T07:43:40.292Z,97.99
2022-10-23T07:44:40.269Z,97.99
2022-10-23T07:45:40.256Z,97.99
2022-10-23T07:46:40.287Z,97.99
2022-10-23T07:47:40.599Z,97.99
2022-10-23T07:48:40.221Z,97.99
2022-10-23T07:49:40.260Z,97.99
2022-10-23T07:50:40.228Z,97.99
2022-10-23T07:51:40.396Z,97.99
2022-10-23T07:52:40.176Z,97.89
2022-10-23T07:53:40.171Z,97.84
2022-10-23T07:54:40.154Z,97.74
2022-10-23T07:55:40.187Z,97.74
2022-10-23T07:56:40.185Z,97.74
2022-10-23T07:57:40.150Z,97.74
2022-10-23T07:58:40.147Z,97.64
2022-10-23T07:59:40.177Z,97.64
2022-10-23T08:00:40.087Z,97.64
2022-10-23T08:01:40.181Z,97.64
2022-10-23T08:02:40.485Z,97.64
2022-10-23T08:03:40.053Z,97.64
2022-10-23T08:04:40.046Z,97.64
2022-10-23T08:05:40.026Z,97.64
2022-10-23T08:06:40.031Z,97.60
2022-10-23T08:07:40.066Z,97.60
2022-10-23T08:08:40.073Z,97.49
2022-10-23T08:09:39.987Z,97.39
2022-10-23T08:10:39.985Z,97.39
2022-10-23T08:11:39.966Z,97.29
2022-10-23T08:12:40.188Z,97.19
2022-10-23T08:13:39.966Z,97.08
2022-10-23T08:14:39.972Z,97.08
2022-10-23T08:15:39.927Z,96.98
2022-10-23T08:16:40.010Z,96.94
2022-10-23T08:17:40.086Z,96.83
2022-10-23T08:18:39.903Z,96.73
2022-10-23T08:19:39.877Z,96.73
2022-10-23T08:20:39.878Z,96.73
2022-10-23T08:21:39.866Z,96.73
2022-10-23T08:22:39.886Z,96.63
2022-10-23T08:23:39.838Z,96.63
2022-10-23T08:24:39.856Z,96.53
2022-10-23T08:25:39.820Z,96.43
2022-10-23T08:26:39.826Z,96.43
2022-10-23T08:27:39.861Z,96.33
2022-10-23T08:28:41.576Z,96.43
2022-10-23T08:29:39.777Z,96.28
2022-10-23T08:30:39.766Z,96.28
2022-10-23T08:31:39.755Z,96.28
2022-10-23T08:32:39.767Z,96.18
2022-10-23T08:33:39.815Z,96.08
2022-10-23T08:34:39.747Z,96.08
2022-10-23T08:35:39.716Z,95.98
2022-10-23T08:36:39.719Z,95.98
2022-10-23T08:37:39.903Z,95.98
2022-10-23T08:38:39.679Z,95.87
2022-10-23T08:39:39.687Z,95.83
2022-10-23T08:40:39.712Z,95.73
2022-10-23T08:41:39.687Z,95.63
2022-10-23T08:42:39.721Z,95.53
2022-10-23T08:43:39.646Z,95.53
2022-10-23T08:44:39.629Z,95.42
2022-10-23T08:45:39.598Z,95.42
2022-10-23T08:46:39.587Z,95.32
2022-10-23T08:47:39.635Z,95.22
2022-10-23T08:48:39.575Z,95.18
2022-10-23T08:49:39.648Z,95.07
2022-10-23T08:50:39.557Z,94.98
2022-10-23T08:51:39.533Z,94.87
2022-10-23T08:52:39.526Z,94.77
2022-10-23T08:53:39.516Z,94.67
2022-10-23T08:54:39.567Z,94.46
2022-10-23T08:55:39.516Z,94.46
2022-10-23T08:56:39.548Z,94.32
2022-10-23T08:57:42.753Z,94.12
2022-10-23T08:58:39.493Z,94.02
2022-10-23T08:59:39.458Z,93.91
2022-10-23T09:00:39.524Z,93.71
2022-10-23T09:01:39.621Z,93.71
2022-10-23T09:02:39.429Z,93.46
2022-10-23T09:03:39.530Z,93.46
2022-10-23T09:04:39.398Z,93.37
2022-10-23T09:05:39.387Z,93.26
2022-10-23T09:06:39.449Z,93.26
2022-10-23T09:07:39.385Z,93.06
2022-10-23T09:08:39.368Z,92.86
2022-10-23T09:09:39.348Z,92.76
2022-10-23T09:10:39.338Z,92.61
2022-10-23T09:11:39.412Z,92.51
2022-10-23T09:12:39.318Z,92.41
2022-10-23T09:13:39.297Z,92.41
2022-10-23T09:14:39.296Z,92.21
2022-10-23T09:15:39.286Z,92.10
2022-10-23T09:16:39.315Z,92.00
2022-10-23T09:17:39.282Z,91.96
2022-10-23T09:18:39.256Z,92.77
2022-10-23T09:19:39.248Z,93.13
2022-10-23T09:20:39.367Z,93.03
2022-10-23T09:21:39.219Z,92.48
2022-10-23T09:22:39.367Z,91.87
2022-10-23T09:23:39.196Z,91.16
2022-10-23T09:24:39.197Z,90.41
2022-10-23T09:25:39.198Z,89.70
2022-10-23T09:26:39.197Z,89.61
2022-10-23T09:27:39.156Z,89.16
2022-10-23T09:28:39.190Z,88.55
2022-10-23T09:29:39.126Z,87.64
2022-10-23T09:30:39.343Z,87.44
2022-10-23T09:31:39.137Z,87.34
2022-10-23T09:32:39.106Z,87.34
2022-10-23T09:33:39.154Z,87.38
2022-10-23T09:34:39.116Z,87.68
2022-10-23T09:35:39.076Z,87.79
2022-10-23T09:36:39.067Z,87.79
2022-10-23T09:37:39.066Z,87.88
2022-10-23T09:38:39.043Z,87.99
2022-10-23T09:39:39.037Z,88.09
2022-10-23T09:40:39.047Z,88.39
2022-10-23T09:41:39.017Z,88.43
2022-10-23T09:42:38.996Z,88.53
2022-10-23T09:43:38.986Z,88.64
2022-10-23T09:44:38.977Z,88.64
2022-10-23T09:45:38.966Z,88.74
2022-10-23T09:46:39.040Z,88.84
2022-10-23T09:47:38.944Z,88.94
2022-10-23T09:48:38.956Z,89.04
2022-10-23T09:49:38.926Z,89.04
2022-10-23T09:50:38.943Z,89.04
2022-10-23T09:51:38.897Z,89.04
2022-10-23T09:52:38.955Z,89.04
2022-10-23T09:53:39.000Z,89.14
2022-10-23T09:54:38.889Z,89.14
2022-10-23T09:55:38.856Z,89.24
2022-10-23T09:56:38.917Z,89.24
2022-10-23T09:57:38.896Z,89.20
2022-10-23T09:58:38.845Z,89.10
2022-10-23T09:59:38.805Z,89.10
2022-10-23T10:00:38.861Z,89.00
2022-10-23T10:01:38.924Z,88.90
2022-10-23T10:02:38.798Z,88.90
2022-10-23T10:03:38.798Z,88.79
2022-10-23T10:04:38.772Z,88.59
2022-10-23T10:05:38.756Z,88.59
2022-10-23T10:06:38.815Z,88.49
2022-10-23T10:07:38.776Z,88.49
2022-10-23T10:08:39.788Z,88.45
2022-10-23T10:09:38.718Z,88.35
2022-10-23T10:10:38.758Z,88.25
2022-10-23T10:11:38.687Z,88.25
2022-10-23T10:12:38.682Z,88.35
2022-10-23T10:13:38.659Z,88.25
2022-10-23T10:14:38.696Z,88.15
2022-10-23T10:15:38.718Z,88.04
2022-10-23T10:17:38.638Z,87.74
2022-10-23T10:18:38.639Z,87.74
2022-10-23T10:19:42.177Z,87.64
2022-10-23T10:20:38.596Z,87.50
2022-10-23T10:21:38.598Z,87.40
2022-10-23T10:22:38.608Z,87.40
2022-10-23T10:23:38.598Z,87.19
2022-10-23T10:24:38.599Z,87.19
2022-10-23T10:25:39.385Z,87.19
2022-10-23T10:26:38.568Z,87.10
2022-10-23T10:27:38.528Z,87.10
2022-10-23T10:28:38.517Z,86.99
2022-10-23T10:29:38.487Z,86.99
2022-10-23T10:30:38.548Z,86.99
2022-10-23T10:31:38.487Z,86.99
2022-10-23T10:32:38.458Z,86.99
2022-10-23T10:33:38.467Z,86.99
2022-10-23T10:34:38.447Z,86.90
2022-10-23T10:35:45.486Z,86.90
2022-10-23T10:36:38.509Z,86.99
2022-10-23T10:37:38.397Z,86.85
2022-10-23T10:38:38.407Z,86.90
2022-10-23T10:39:38.380Z,86.85
2022-10-23T10:40:38.370Z,86.75
2022-10-23T10:41:38.499Z,86.65
2022-10-23T10:42:38.348Z,86.55
2022-10-23T10:43:38.329Z,86.55
2022-10-23T10:44:38.339Z,86.55
2022-10-23T10:45:38.390Z,86.55
2022-10-23T10:46:38.308Z,86.55
2022-10-23T10:47:38.289Z,86.65
2022-10-23T10:48:38.422Z,86.55
2022-10-23T10:49:38.283Z,86.65
2022-10-23T10:50:38.269Z,86.65
2022-10-23T10:51:38.288Z,86.55
2022-10-23T10:52:38.273Z,86.35
2022-10-23T10:53:38.240Z,86.35
2022-10-23T10:54:38.299Z,86.35
2022-10-23T10:55:38.201Z,86.25
2022-10-23T10:56:38.209Z,86.35
2022-10-23T10:57:38.220Z,86.35
2022-10-23T10:58:38.187Z,86.25
2022-10-23T10:59:38.165Z,86.25
2022-10-23T11:00:38.159Z,86.25
2022-10-23T11:01:38.572Z,86.15
2022-10-23T11:02:38.180Z,86.25
2022-10-23T11:03:40.130Z,86.21
2022-10-23T11:04:38.111Z,86.10
2022-10-23T11:05:38.116Z,86.10
2022-10-23T11:06:38.119Z,86.10
2022-10-23T11:07:38.069Z,86.10
2022-10-23T11:08:49.848Z,86.21
2022-10-23T11:09:39.079Z,86.00
2022-10-23T11:10:38.220Z,86.00
2022-10-23T11:11:38.028Z,85.90
2022-10-23T11:12:38.018Z,86.00
2022-10-23T11:13:38.009Z,86.00
2022-10-23T11:14:38.001Z,86.00
2022-10-23T11:15:38.032Z,86.00
2022-10-23T11:16:38.251Z,86.00
2022-10-23T11:17:37.985Z,85.90
2022-10-23T11:18:37.987Z,85.80
2022-10-23T11:19:37.937Z,85.80
2022-10-23T11:20:37.949Z,85.70
2022-10-23T11:21:37.917Z,85.70
2022-10-23T11:22:37.942Z,85.60
2022-10-23T11:23:37.902Z,85.70
2022-10-23T11:24:37.898Z,85.70
2022-10-23T11:25:37.879Z,85.76
2022-10-23T11:26:37.878Z,85.76
2022-10-23T11:27:37.859Z,85.76
2022-10-23T11:28:39.560Z,85.66
2022-10-23T11:29:37.839Z,85.66
2022-10-23T11:30:37.830Z,85.56
2022-10-23T11:31:37.858Z,85.56
2022-10-23T11:32:37.844Z,85.36
2022-10-23T11:33:39.283Z,85.36
2022-10-23T11:34:37.819Z,85.16
2022-10-23T11:35:37.770Z,85.25
2022-10-23T11:36:37.769Z,85.25
2022-10-23T11:37:37.749Z,85.16
2022-10-23T11:38:37.750Z,85.05
2022-10-23T11:39:37.731Z,85.02
2022-10-23T11:40:37.823Z,84.91
2022-10-23T11:41:37.704Z,84.71
2022-10-23T11:42:37.700Z,84.61
2022-10-23T11:43:37.693Z,84.51
2022-10-23T11:44:37.681Z,84.51
2022-10-23T11:45:37.703Z,84.31
2022-10-23T11:46:37.689Z,84.21
2022-10-23T11:47:40.051Z,84.11
2022-10-23T11:48:37.640Z,84.01
2022-10-23T11:49:37.630Z,83.97
2022-10-23T11:50:37.619Z,83.97
2022-10-23T11:51:37.652Z,83.66
2022-10-23T11:52:45.559Z,83.56
2022-10-23T11:53:38.589Z,83.46
2022-10-23T11:54:37.579Z,83.36
2022-10-23T11:55:37.559Z,83.16
2022-10-23T11:56:37.560Z,83.16
2022-10-23T11:57:37.610Z,83.06
2022-10-23T11:58:37.561Z,82.76
2022-10-23T11:59:37.561Z,82.56
2022-10-23T12:00:37.522Z,82.42
2022-10-23T12:01:37.580Z,82.42
2022-10-23T12:02:37.604Z,82.11
2022-10-23T12:03:37.480Z,81.91
2022-10-23T12:04:37.541Z,81.91
2022-10-23T12:05:37.450Z,81.81
2022-10-23T12:06:37.471Z,81.71
2022-10-23T12:07:37.439Z,81.71
2022-10-23T12:08:37.421Z,81.57
2022-10-23T12:09:37.412Z,81.47
2022-10-23T12:10:42.739Z,81.27
2022-10-23T12:11:37.395Z,80.97
2022-10-23T12:12:37.388Z,80.87
2022-10-23T12:13:37.378Z,80.66
2022-10-23T12:14:37.409Z,80.57
2022-10-23T12:15:37.351Z,80.36
2022-10-23T12:16:37.480Z,80.46
2022-10-23T12:17:37.331Z,80.46
2022-10-23T12:18:37.312Z,80.46
2022-10-23T12:19:37.342Z,80.46
2022-10-23T12:20:37.301Z,80.36
2022-10-23T12:21:37.289Z,80.26
2022-10-23T12:22:37.273Z,80.06
2022-10-23T12:23:37.269Z,79.86
2022-10-23T12:24:37.262Z,79.86
2022-10-23T12:25:37.302Z,80.06
2022-10-23T12:26:37.270Z,80.16
2022-10-23T12:27:37.230Z,80.16
2022-10-23T12:28:37.252Z,80.12
2022-10-23T12:29:37.202Z,80.22
2022-10-23T12:30:37.192Z,80.32
2022-10-23T12:31:37.192Z,80.43
2022-10-23T12:32:37.171Z,80.63
2022-10-23T12:33:37.823Z,80.83
2022-10-23T12:34:37.256Z,80.93
2022-10-23T12:35:37.161Z,81.03
2022-10-23T12:36:37.152Z,81.13
2022-10-23T12:37:37.121Z,80.99
2022-10-23T12:38:37.102Z,80.89
2022-10-23T12:39:37.213Z,80.89
2022-10-23T12:40:37.091Z,80.19
2022-10-23T12:41:37.101Z,79.88
2022-10-23T12:42:37.064Z,79.99
2022-10-23T12:43:37.053Z,80.29
2022-10-23T12:44:37.032Z,80.29
2022-10-23T12:45:37.041Z,80.29
2022-10-23T12:46:37.031Z,80.29
2022-10-23T12:48:37.053Z,80.49
2022-10-23T12:49:36.994Z,79.99
2022-10-23T12:50:36.972Z,79.79
2022-10-23T12:51:36.978Z,79.88
2022-10-23T12:52:36.993Z,79.54
2022-10-23T12:53:36.946Z,79.44
2022-10-23T12:54:36.964Z,79.54
2022-10-23T12:55:36.922Z,78.54
2022-10-23T12:56:36.915Z,78.34
2022-10-23T12:57:36.910Z,78.94